Westfield, WI (53964)

6:53 AM CDT on July 06, 2015 (GMT -0500)
Manley's@Cant Hill | | Change Station
CLOSE
Current Station
Personal Weather Station
Location: Westfield, WI
Elevation: 1000 ft
Nearby Weather Stations

Elev 1000 ft 43.87 °N, 89.49 °W | Updated 13 minutes ago

Clear
Clear
66.2 °F
Feels Like 66.2 °F
N
6.0
Wind Variable Wind from North

Today
High -- | Low -- °F
--% Chance of Precip.
Yesterday
High -- | Low -- °F
Precip. -- in
5:22 AM 8:43 PM
Waning Gibbous, 76% visible
Pressure 29.89 in
Visibility 4.0 miles
Clouds Clear
Dew Point 64 °F
Humidity 92%
Rainfall 0.00 in
Snow Depth Not available.
UV 0 out of 12
Pollen .60 out of 12
Air Quality Not available.
Flu Activity Not available.
METAR KY50 061056Z AUTO 00000KT 4SM BR CLR 19/19 A2991 RMK AO2 TSNO T01880188 SLP121

More Conditions Fewer Conditions

Pressure 29.89 in
Visibility 4.0 miles
Clouds Clear
Dew Point 64 °F
Humidity 92%
Rainfall 0.00 in
Snow Depth Not available.
UV 0 out of 12
Pollen .60 out of 12
Air Quality Not available.
Flu Activity Not available.
METAR KY50 061056Z AUTO 00000KT 4SM BR CLR 19/19 A2991 RMK AO2 TSNO T01880188 SLP121

More Conditions Fewer Conditions

10-Day Weather Forecast

×

Almanac

Astronomy

Jul. 06, 2015 Rise Set
Actual Time
Civil Twilight
Nautical Twilight
Astronomical Twilight
Moon
Length of Visible Light
Length of Day
Tomorrow will be .
, % of the Moon is Illuminated

Today's Extremes

State Highs State Lows

Community

WunderPhotos

Upload Photos

1,835,538 photos uploaded!

WunderBlogs® & News

Nearby

Air Quality

  Air Quality AQ Index Pollutant
Not available.

Snow Depth

Station Depth Elevation

Earthquake Activity

City Distance Mag. Time & Date
Minimum magnitude displayed is 2.5.

Coastal Water Temperatures

Place Temperature

Stations

Nearby Weather Stations

Station Location Temp. Windchill Dew Point Humidity Wind Precip. Elev Updated Type